sensor_id;sensor_type;location;lat;lon;timestamp;pressure;altitude;pressure_sealevel;temperature;humidity
1832;BME280;1680;48.106;11.708;2023-04-08T00:01:24;95562.25;;;5.02;100.00
1832;BME280;1680;48.106;11.708;2023-04-08T00:03:53;95563.25;;;5.01;100.00
1832;BME280;1680;48.106;11.708;2023-04-08T00:06:20;95556.41;;;4.93;100.00
1832;BME280;1680;48.106;11.708;2023-04-08T00:08:47;95562.13;;;4.89;100.00
1832;BME280;1680;48.106;11.708;2023-04-08T00:14:43;95570.31;;;4.86;100.00
1832;BME280;1680;48.106;11.708;2023-04-08T00:17:10;95575.31;;;4.87;100.00
1832;BME280;1680;48.106;11.708;2023-04-08T00:19:39;95573.78;;;4.93;100.00
1832;BME280;1680;48.106;11.708;2023-04-08T00:22:06;95577.19;;;4.93;100.00
1832;BME280;1680;48.106;11.708;2023-04-08T00:24:58;95578.13;;;4.86;100.00
1832;BME280;1680;48.106;11.708;2023-04-08T00:27:26;95579.69;;;4.87;100.00
1832;BME280;1680;48.106;11.708;2023-04-08T00:33:15;95577.31;;;4.85;100.00
1832;BME280;1680;48.106;11.708;2023-04-08T00:39:06;95574.50;;;4.87;100.00
1832;BME280;1680;48.106;11.708;2023-04-08T00:44:55;95585.50;;;4.89;100.00
1832;BME280;1680;48.106;11.708;2023-04-08T00:47:23;95578.34;;;4.91;100.00
1832;BME280;1680;48.106;11.708;2023-04-08T00:53:13;95581.94;;;4.90;100.00
1832;BME280;1680;48.106;11.708;2023-04-08T00:59:06;95580.94;;;4.91;100.00
1832;BME280;1680;48.106;11.708;2023-04-08T01:11:26;95583.16;;;4.94;100.00
1832;BME280;1680;48.106;11.708;2023-04-08T01:13:55;95578.34;;;4.91;100.00
1832;BME280;1680;48.106;11.708;2023-04-08T01:16:25;95509.72;;;4.58;100.00
1832;BME280;1680;48.106;11.708;2023-04-08T01:18:53;95574.13;;;4.90;100.00
1832;BME280;1680;48.106;11.708;2023-04-08T01:21:22;95573.41;;;4.96;100.00
1832;BME280;1680;48.106;11.708;2023-04-08T01:23:57;95573.03;;;4.99;100.00
1832;BME280;1680;48.106;11.708;2023-04-08T01:29:50;95575.84;;;5.04;100.00
1832;BME280;1680;48.106;11.708;2023-04-08T01:35:41;95571.22;;;4.99;100.00
1832;BME280;1680;48.106;11.708;2023-04-08T01:38:10;95575.81;;;4.97;100.00
1832;BME280;1680;48.106;11.708;2023-04-08T01:40:40;95573.03;;;4.99;100.00
1832;BME280;1680;48.106;11.708;2023-04-08T01:43:09;95518.38;;;4.65;100.00
1832;BME280;1680;48.106;11.708;2023-04-08T01:45:39;95572.41;;;4.97;100.00
1832;BME280;1680;48.106;11.708;2023-04-08T01:48:09;95570.22;;;5.00;100.00
1832;BME280;1680;48.106;11.708;2023-04-08T01:54:34;95578.59;;;4.96;100.00
1832;BME280;1680;48.106;11.708;2023-04-08T01:57:04;95576.41;;;4.99;100.00
1832;BME280;1680;48.106;11.708;2023-04-08T01:59:34;95584.41;;;4.98;100.00
1832;BME280;1680;48.106;11.708;2023-04-08T02:05:26;95578.28;;;5.05;100.00
1832;BME280;1680;48.106;11.708;2023-04-08T02:07:54;95581.50;;;5.07;100.00
1832;BME280;1680;48.106;11.708;2023-04-08T02:13:35;95582.38;;;4.93;100.00
1832;BME280;1680;48.106;11.708;2023-04-08T02:19:29;95576.88;;;4.82;100.00
1832;BME280;1680;48.106;11.708;2023-04-08T02:25:22;95526.41;;;4.49;100.00
1832;BME280;1680;48.106;11.708;2023-04-08T02:34:34;95582.59;;;4.98;100.00
1832;BME280;1680;48.106;11.708;2023-04-08T02:37:02;95580.44;;;5.02;100.00
1832;BME280;1680;48.106;11.708;2023-04-08T02:39:32;95574.88;;;5.05;100.00
1832;BME280;1680;48.106;11.708;2023-04-08T02:42:00;95582.66;;;5.05;100.00
1832;BME280;1680;48.106;11.708;2023-04-08T02:44:28;95577.91;;;5.08;100.00
1832;BME280;1680;48.106;11.708;2023-04-08T02:46:57;95568.34;;;5.15;100.00
1832;BME280;1680;48.106;11.708;2023-04-08T02:49:25;95571.16;;;5.14;100.00
1832;BME280;1680;48.106;11.708;2023-04-08T02:51:52;95569.97;;;5.16;100.00
1832;BME280;1680;48.106;11.708;2023-04-08T02:54:56;95574.22;;;5.24;100.00
1832;BME280;1680;48.106;11.708;2023-04-08T02:57:25;95573.47;;;5.30;100.00
1832;BME280;1680;48.106;11.708;2023-04-08T03:03:14;95580.28;;;5.31;100.00
1832;BME280;1680;48.106;11.708;2023-04-08T03:09:03;95583.34;;;5.41;100.00
1832;BME280;1680;48.106;11.708;2023-04-08T03:14:54;95589.97;;;5.43;100.00
1832;BME280;1680;48.106;11.708;2023-04-08T03:20:43;95586.28;;;5.59;100.00
1832;BME280;1680;48.106;11.708;2023-04-08T03:26:32;95589.03;;;5.51;100.00
1832;BME280;1680;48.106;11.708;2023-04-08T03:32:23;95587.50;;;5.63;100.00
1832;BME280;1680;48.106;11.708;2023-04-08T03:38:12;95589.34;;;5.69;100.00
1832;BME280;1680;48.106;11.708;2023-04-08T03:50:47;95600.88;;;5.87;100.00
1832;BME280;1680;48.106;11.708;2023-04-08T03:53:14;95598.00;;;5.75;100.00
1832;BME280;1680;48.106;11.708;2023-04-08T03:55:41;95598.00;;;5.75;100.00
1832;BME280;1680;48.106;11.708;2023-04-08T03:58:08;95600.00;;;5.73;100.00
1832;BME280;1680;48.106;11.708;2023-04-08T04:00:36;95601.97;;;5.72;100.00
1832;BME280;1680;48.106;11.708;2023-04-08T04:03:03;95607.88;;;5.80;100.00
1832;BME280;1680;48.106;11.708;2023-04-08T04:05:31;95606.75;;;5.68;100.00
1832;BME280;1680;48.106;11.708;2023-04-08T04:07:59;95614.41;;;5.76;100.00
1832;BME280;1680;48.106;11.708;2023-04-08T04:10:26;95610.19;;;5.75;100.00
1832;BME280;1680;48.106;11.708;2023-04-08T04:12:54;95618.16;;;5.67;100.00
1832;BME280;1680;48.106;11.708;2023-04-08T04:15:21;95615.94;;;5.64;100.00
1832;BME280;1680;48.106;11.708;2023-04-08T04:17:48;95621.09;;;5.58;100.00
1832;BME280;1680;48.106;11.708;2023-04-08T04:20:16;95620.75;;;5.67;100.00
1832;BME280;1680;48.106;11.708;2023-04-08T04:22:43;95625.72;;;5.62;100.00
1832;BME280;1680;48.106;11.708;2023-04-08T04:32:27;95626.88;;;5.80;100.00
1832;BME280;1680;48.106;11.708;2023-04-08T04:34:54;95637.50;;;6.13;100.00
1832;BME280;1680;48.106;11.708;2023-04-08T04:40:44;95635.59;;;6.00;100.00
1832;BME280;1680;48.106;11.708;2023-04-08T04:46:34;95640.22;;;6.05;100.00
1832;BME280;1680;48.106;11.708;2023-04-08T04:52:25;95643.09;;;6.16;100.00
1832;BME280;1680;48.106;11.708;2023-04-08T04:58:14;95650.91;;;6.16;100.00
1832;BME280;1680;48.106;11.708;2023-04-08T05:00:41;95653.19;;;6.26;100.00
1832;BME280;1680;48.106;11.708;2023-04-08T05:06:30;95649.22;;;6.36;100.00
1832;BME280;1680;48.106;11.708;2023-04-08T05:08:59;95656.47;;;6.47;100.00
1832;BME280;1680;48.106;11.708;2023-04-08T05:18:14;95655.28;;;6.50;100.00
1832;BME280;1680;48.106;11.708;2023-04-08T05:20:42;95647.78;;;6.87;100.00
1832;BME280;1680;48.106;11.708;2023-04-08T05:26:30;95647.91;;;6.60;100.00
1832;BME280;1680;48.106;11.708;2023-04-08T05:28:57;95654.19;;;6.78;100.00
1832;BME280;1680;48.106;11.708;2023-04-08T05:31:24;95657.00;;;6.89;100.00
1832;BME280;1680;48.106;11.708;2023-04-08T05:33:51;95596.19;;;6.50;100.00
1832;BME280;1680;48.106;11.708;2023-04-08T05:39:41;95648.66;;;7.07;100.00
1832;BME280;1680;48.106;11.708;2023-04-08T05:45:31;95655.66;;;7.06;100.00
1832;BME280;1680;48.106;11.708;2023-04-08T05:47:59;95653.84;;;6.94;100.00
1832;BME280;1680;48.106;11.708;2023-04-08T05:50:26;95660.06;;;7.06;100.00
1832;BME280;1680;48.106;11.708;2023-04-08T05:52:53;95656.28;;;7.15;100.00
1832;BME280;1680;48.106;11.708;2023-04-08T05:55:21;95649.03;;;7.10;100.00
1832;BME280;1680;48.106;11.708;2023-04-08T05:57:48;95660.31;;;7.24;100.00
1832;BME280;1680;48.106;11.708;2023-04-08T06:00:15;95652.09;;;7.33;100.00
1832;BME280;1680;48.106;11.708;2023-04-08T06:02:44;95657.31;;;7.33;100.00
1832;BME280;1680;48.106;11.708;2023-04-08T06:05:11;95662.72;;;7.45;100.00
1832;BME280;1680;48.106;11.708;2023-04-08T06:07:38;95669.53;;;7.33;100.00
1832;BME280;1680;48.106;11.708;2023-04-08T06:10:07;95667.16;;;7.31;100.00
1832;BME280;1680;48.106;11.708;2023-04-08T06:12:35;95663.53;;;7.39;100.00
1832;BME280;1680;48.106;11.708;2023-04-08T06:18:11;95674.97;;;7.38;100.00
1832;BME280;1680;48.106;11.708;2023-04-08T06:20:41;95667.75;;;7.53;100.00
1832;BME280;1680;48.106;11.708;2023-04-08T06:23:08;95679.81;;;7.67;100.00
1832;BME280;1680;48.106;11.708;2023-04-08T06:25:35;95671.78;;;7.62;100.00
1832;BME280;1680;48.106;11.708;2023-04-08T06:28:12;95676.81;;;7.69;100.00
1832;BME280;1680;48.106;11.708;2023-04-08T06:30:39;95674.78;;;7.65;100.00
1832;BME280;1680;48.106;11.708;2023-04-08T06:33:07;95683.59;;;7.58;100.00
1832;BME280;1680;48.106;11.708;2023-04-08T06:35:35;95678.38;;;7.58;100.00
1832;BME280;1680;48.106;11.708;2023-04-08T06:38:02;95681.59;;;7.60;100.00
1832;BME280;1680;48.106;11.708;2023-04-08T06:40:30;95684.03;;;7.55;100.00
1832;BME280;1680;48.106;11.708;2023-04-08T06:42:57;95682.00;;;7.57;100.00
1832;BME280;1680;48.106;11.708;2023-04-08T06:48:38;95687.03;;;7.65;100.00
1832;BME280;1680;48.106;11.708;2023-04-08T06:54:29;95691.63;;;7.88;100.00
1832;BME280;1680;48.106;11.708;2023-04-08T07:00:18;95699.88;;;8.11;100.00
1832;BME280;1680;48.106;11.708;2023-04-08T07:06:07;95704.91;;;8.19;100.00
1832;BME280;1680;48.106;11.708;2023-04-08T07:11:58;95699.69;;;8.19;100.00
1832;BME280;1680;48.106;11.708;2023-04-08T07:17:47;95705.28;;;8.42;100.00
1832;BME280;1680;48.106;11.708;2023-04-08T07:30:22;95722.16;;;8.27;100.00
1832;BME280;1680;48.106;11.708;2023-04-08T07:36:12;95725.16;;;8.50;100.00
1832;BME280;1680;48.106;11.708;2023-04-08T07:48:44;95635.25;;;7.36;100.00
1832;BME280;1680;48.106;11.708;2023-04-08T07:51:11;95736.63;;;7.97;100.00
1832;BME280;1680;48.106;11.708;2023-04-08T07:54:10;95737.84;;;7.81;100.00
1832;BME280;1680;48.106;11.708;2023-04-08T07:56:41;95736.63;;;7.65;96.85
1832;BME280;1680;48.106;11.708;2023-04-08T07:59:09;95741.06;;;7.77;96.57
1832;BME280;1680;48.106;11.708;2023-04-08T08:05:01;95744.06;;;7.74;96.32
1832;BME280;1680;48.106;11.708;2023-04-08T08:10:36;95743.25;;;7.80;94.82
1832;BME280;1680;48.106;11.708;2023-04-08T08:13:03;95746.28;;;7.70;94.75
1832;BME280;1680;48.106;11.708;2023-04-08T08:18:41;95749.84;;;7.57;91.85
1832;BME280;1680;48.106;11.708;2023-04-08T08:24:29;95755.88;;;7.64;93.22
1832;BME280;1680;48.106;11.708;2023-04-08T08:26:56;95746.84;;;7.53;92.18
1832;BME280;1680;48.106;11.708;2023-04-08T08:29:23;95749.28;;;7.68;93.02
1832;BME280;1680;48.106;11.708;2023-04-08T08:31:50;95748.69;;;7.72;92.72
1832;BME280;1680;48.106;11.708;2023-04-08T08:37:39;95759.47;;;7.43;100.00
1832;BME280;1680;48.106;11.708;2023-04-08T08:43:30;95755.41;;;7.28;95.41
1832;BME280;1680;48.106;11.708;2023-04-08T08:45:59;95765.25;;;7.26;95.98
1832;BME280;1680;48.106;11.708;2023-04-08T08:48:26;95764.66;;;7.37;97.29
1832;BME280;1680;48.106;11.708;2023-04-08T08:50:53;95762.69;;;7.39;96.70
1832;BME280;1680;48.106;11.708;2023-04-08T08:53:39;95769.25;;;7.22;93.67
1832;BME280;1680;48.106;11.708;2023-04-08T08:56:09;95764.59;;;7.11;96.17
1832;BME280;1680;48.106;11.708;2023-04-08T09:02:00;95769.91;;;7.50;96.66
1832;BME280;1680;48.106;11.708;2023-04-08T09:07:49;95770.69;;;7.44;96.32
1832;BME280;1680;48.106;11.708;2023-04-08T09:10:25;95780.94;;;7.45;99.54
1832;BME280;1680;48.106;11.708;2023-04-08T09:13:33;95779.53;;;7.43;99.74
1832;BME280;1680;48.106;11.708;2023-04-08T09:16:03;95782.16;;;7.49;100.00
1832;BME280;1680;48.106;11.708;2023-04-08T09:22:09;95778.72;;;7.36;100.00
1832;BME280;1680;48.106;11.708;2023-04-08T09:27:51;95790.22;;;7.61;98.33
1832;BME280;1680;48.106;11.708;2023-04-08T09:30:20;95786.44;;;7.69;98.42
1832;BME280;1680;48.106;11.708;2023-04-08T09:32:48;95784.75;;;7.49;99.53
1832;BME280;1680;48.106;11.708;2023-04-08T09:35:17;95780.50;;;7.35;99.46
1832;BME280;1680;48.106;11.708;2023-04-08T09:37:46;95789.31;;;7.28;100.00
1832;BME280;1680;48.106;11.708;2023-04-08T09:40:14;95788.72;;;7.26;97.79
1832;BME280;1680;48.106;11.708;2023-04-08T09:42:45;95791.16;;;7.34;98.96
1832;BME280;1680;48.106;11.708;2023-04-08T09:45:15;95780.25;;;7.17;98.35
1832;BME280;1680;48.106;11.708;2023-04-08T09:47:51;95781.22;;;7.03;97.47
1832;BME280;1680;48.106;11.708;2023-04-08T09:50:25;95766.75;;;7.01;96.31
1832;BME280;1680;48.106;11.708;2023-04-08T09:53:11;95783.06;;;7.16;96.58
1832;BME280;1680;48.106;11.708;2023-04-08T09:55:47;95787.25;;;7.10;96.38
1832;BME280;1680;48.106;11.708;2023-04-08T09:58:21;95791.13;;;7.27;94.76
1832;BME280;1680;48.106;11.708;2023-04-08T10:00:53;95790.16;;;7.41;94.41
1832;BME280;1680;48.106;11.708;2023-04-08T10:03:25;95794.41;;;7.49;92.62
1832;BME280;1680;48.106;11.708;2023-04-08T10:09:17;95792.00;;;7.54;91.22
1832;BME280;1680;48.106;11.708;2023-04-08T10:15:23;95799.09;;;7.79;90.72
1832;BME280;1680;48.106;11.708;2023-04-08T10:17:51;95783.84;;;7.95;89.44
1832;BME280;1680;48.106;11.708;2023-04-08T10:23:54;95777.81;;;8.53;87.44
1832;BME280;1680;48.106;11.708;2023-04-08T10:33:14;95781.19;;;8.79;83.59
1832;BME280;1680;48.106;11.708;2023-04-08T10:35:47;95785.88;;;8.58;83.60
1832;BME280;1680;48.106;11.708;2023-04-08T10:38:16;95777.47;;;8.30;83.63
1832;BME280;1680;48.106;11.708;2023-04-08T10:40:43;95770.41;;;8.24;84.03
1832;BME280;1680;48.106;11.708;2023-04-08T10:43:12;95778.03;;;8.26;86.76
1832;BME280;1680;48.106;11.708;2023-04-08T10:45:40;95774.03;;;8.36;85.63
1832;BME280;1680;48.106;11.708;2023-04-08T10:48:14;95658.13;;;7.66;85.67
1832;BME280;1680;48.106;11.708;2023-04-08T10:50:42;95774.03;;;8.36;87.07
1832;BME280;1680;48.106;11.708;2023-04-08T10:56:32;95777.44;;;8.43;87.67
1832;BME280;1680;48.106;11.708;2023-04-08T10:59:00;95774.41;;;8.07;88.14
1832;BME280;1680;48.106;11.708;2023-04-08T11:04:52;95775.41;;;7.93;89.11
1832;BME280;1680;48.106;11.708;2023-04-08T11:07:20;95720.19;;;7.70;88.88
1832;BME280;1680;48.106;11.708;2023-04-08T11:13:09;95779.22;;;7.97;91.31
1832;BME280;1680;48.106;11.708;2023-04-08T11:15:37;95781.63;;;7.92;90.70
1832;BME280;1680;48.106;11.708;2023-04-08T11:18:05;95783.25;;;8.06;91.73
1832;BME280;1680;48.106;11.708;2023-04-08T11:20:33;95780.44;;;8.01;91.73
1832;BME280;1680;48.106;11.708;2023-04-08T11:23:01;95786.84;;;7.86;93.95
1832;BME280;1680;48.106;11.708;2023-04-08T11:25:29;95795.69;;;7.85;95.96
1832;BME280;1680;48.106;11.708;2023-04-08T11:38:05;95796.91;;;7.95;96.05
1832;BME280;1680;48.106;11.708;2023-04-08T11:40:32;95794.50;;;7.94;97.77
1832;BME280;1680;48.106;11.708;2023-04-08T11:43:08;95793.28;;;7.96;96.53
1832;BME280;1680;48.106;11.708;2023-04-08T11:45:37;95794.47;;;7.87;95.18
1832;BME280;1680;48.106;11.708;2023-04-08T11:48:08;95794.88;;;7.71;95.88
1832;BME280;1680;48.106;11.708;2023-04-08T11:50:36;95801.28;;;7.75;95.57
1832;BME280;1680;48.106;11.708;2023-04-08T11:53:15;95795.25;;;7.56;97.09
1832;BME280;1680;48.106;11.708;2023-04-08T11:55:44;95804.00;;;7.42;97.61
1832;BME280;1680;48.106;11.708;2023-04-08T12:08:19;95802.28;;;7.74;96.33
1832;BME280;1680;48.106;11.708;2023-04-08T12:10:47;95807.25;;;7.57;95.69
1832;BME280;1680;48.106;11.708;2023-04-08T12:13:14;95804.69;;;7.63;94.72
1832;BME280;1680;48.106;11.708;2023-04-08T12:15:41;95805.28;;;7.65;95.27
1832;BME280;1680;48.106;11.708;2023-04-08T12:18:08;95804.06;;;7.55;95.79
1832;BME280;1680;48.106;11.708;2023-04-08T12:20:35;95817.28;;;7.47;95.82
1832;BME280;1680;48.106;11.708;2023-04-08T12:23:03;95810.66;;;7.51;96.10
1832;BME280;1680;48.106;11.708;2023-04-08T12:25:44;95811.56;;;7.83;94.32
1832;BME280;1680;48.106;11.708;2023-04-08T12:28:12;95820.78;;;7.79;94.43
1832;BME280;1680;48.106;11.708;2023-04-08T12:33:59;95815.69;;;7.59;95.89
1832;BME280;1680;48.106;11.708;2023-04-08T12:39:48;95820.84;;;7.33;97.22
1832;BME280;1680;48.106;11.708;2023-04-08T12:42:17;95828.53;;;7.47;95.99
1832;BME280;1680;48.106;11.708;2023-04-08T12:44:44;95829.66;;;7.32;97.35
1832;BME280;1680;48.106;11.708;2023-04-08T12:47:11;95829.66;;;7.32;96.46
1832;BME280;1680;48.106;11.708;2023-04-08T12:49:39;95826.38;;;7.17;99.11
1832;BME280;1680;48.106;11.708;2023-04-08T12:52:07;95830.25;;;7.27;98.78
1832;BME280;1680;48.106;11.708;2023-04-08T12:54:34;95830.69;;;7.44;98.06
1832;BME280;1680;48.106;11.708;2023-04-08T12:57:01;95827.56;;;7.08;99.13
1832;BME280;1680;48.106;11.708;2023-04-08T12:59:30;95830.16;;;7.08;99.21
1832;BME280;1680;48.106;11.708;2023-04-08T13:05:21;95830.38;;;7.13;100.00
1832;BME280;1680;48.106;11.708;2023-04-08T13:11:10;95832.88;;;6.93;100.00
1832;BME280;1680;48.106;11.708;2023-04-08T13:17:01;95834.50;;;6.94;100.00
1832;BME280;1680;48.106;11.708;2023-04-08T13:22:50;95830.63;;;7.90;100.00
1832;BME280;1680;48.106;11.708;2023-04-08T13:25:18;95836.06;;;9.99;100.00
1832;BME280;1680;48.106;11.708;2023-04-08T13:27:45;95835.91;;;10.92;95.29
1832;BME280;1680;48.106;11.708;2023-04-08T13:30:12;95829.63;;;10.75;88.81
1832;BME280;1680;48.106;11.708;2023-04-08T13:32:41;95843.16;;;11.32;90.69
1832;BME280;1680;48.106;11.708;2023-04-08T13:35:09;95850.06;;;10.42;81.41
1832;BME280;1680;48.106;11.708;2023-04-08T13:37:36;95849.41;;;9.48;85.08
1832;BME280;1680;48.106;11.708;2023-04-08T13:40:04;95845.63;;;9.31;98.22
1832;BME280;1680;48.106;11.708;2023-04-08T13:42:33;95858.81;;;10.05;97.12
1832;BME280;1680;48.106;11.708;2023-04-08T13:45:00;95804.59;;;9.62;97.30
1832;BME280;1680;48.106;11.708;2023-04-08T13:47:27;95840.88;;;9.59;90.87
1832;BME280;1680;48.106;11.708;2023-04-08T13:49:56;95848.97;;;8.81;90.47
1832;BME280;1680;48.106;11.708;2023-04-08T13:52:24;95842.38;;;8.46;92.23
1832;BME280;1680;48.106;11.708;2023-04-08T13:54:51;95849.53;;;8.05;95.72
1832;BME280;1680;48.106;11.708;2023-04-08T13:57:19;95861.88;;;7.58;97.56
1832;BME280;1680;48.106;11.708;2023-04-08T13:59:46;95852.22;;;7.52;99.24
1832;BME280;1680;48.106;11.708;2023-04-08T14:02:13;95848.19;;;7.43;100.00
1832;BME280;1680;48.106;11.708;2023-04-08T14:04:40;95853.34;;;7.30;100.00
1832;BME280;1680;48.106;11.708;2023-04-08T14:07:10;95853.69;;;7.21;100.00
1832;BME280;1680;48.106;11.708;2023-04-08T14:09:37;95854.84;;;7.12;100.00
1832;BME280;1680;48.106;11.708;2023-04-08T14:12:04;95858.25;;;7.06;100.00
1832;BME280;1680;48.106;11.708;2023-04-08T14:14:32;95858.31;;;7.19;100.00
1832;BME280;1680;48.106;11.708;2023-04-08T14:16:59;95853.28;;;7.17;100.00
1832;BME280;1680;48.106;11.708;2023-04-08T14:19:26;95854.09;;;7.18;100.00
1832;BME280;1680;48.106;11.708;2023-04-08T14:21:53;95851.69;;;7.16;100.00
1832;BME280;1680;48.106;11.708;2023-04-08T14:24:22;95862.00;;;7.44;100.00
1832;BME280;1680;48.106;11.708;2023-04-08T14:26:49;95859.59;;;7.36;100.00
1832;BME280;1680;48.106;11.708;2023-04-08T14:29:16;95862.56;;;7.33;100.00
1832;BME280;1680;48.106;11.708;2023-04-08T14:35:06;95865.41;;;7.38;100.00
1832;BME280;1680;48.106;11.708;2023-04-08T14:40:56;95864.19;;;7.34;100.00
1832;BME280;1680;48.106;11.708;2023-04-08T14:46:46;95873.25;;;7.04;100.00
1832;BME280;1680;48.106;11.708;2023-04-08T14:52:36;95867.78;;;6.92;100.00
1832;BME280;1680;48.106;11.708;2023-04-08T14:55:03;95875.47;;;7.00;100.00
1832;BME280;1680;48.106;11.708;2023-04-08T14:57:32;95879.72;;;7.08;100.00
1832;BME280;1680;48.106;11.708;2023-04-08T14:59:59;95883.69;;;7.04;100.00
1832;BME280;1680;48.106;11.708;2023-04-08T15:02:26;95883.69;;;7.04;100.00
1832;BME280;1680;48.106;11.708;2023-04-08T15:04:53;95884.94;;;7.08;100.00
1832;BME280;1680;48.106;11.708;2023-04-08T15:10:43;95890.75;;;7.10;100.00
1832;BME280;1680;48.106;11.708;2023-04-08T15:16:33;95895.16;;;7.09;100.00
1832;BME280;1680;48.106;11.708;2023-04-08T15:19:01;95900.06;;;7.25;100.00
1832;BME280;1680;48.106;11.708;2023-04-08T15:21:28;95892.13;;;7.06;100.00
1832;BME280;1680;48.106;11.708;2023-04-08T15:23:56;95893.25;;;6.97;100.00
1832;BME280;1680;48.106;11.708;2023-04-08T15:26:23;95893.06;;;6.92;100.00
1832;BME280;1680;48.106;11.708;2023-04-08T15:28:51;95907.78;;;7.06;100.00
1832;BME280;1680;48.106;11.708;2023-04-08T15:31:21;95897.38;;;7.12;100.00
1832;BME280;1680;48.106;11.708;2023-04-08T15:33:50;95900.22;;;7.17;100.00
1832;BME280;1680;48.106;11.708;2023-04-08T15:36:17;95900.88;;;7.26;100.00
1832;BME280;1680;48.106;11.708;2023-04-08T15:38:44;95907.09;;;6.91;100.00
1832;BME280;1680;48.106;11.708;2023-04-08T15:41:14;95894.69;;;6.99;100.00
1832;BME280;1680;48.106;11.708;2023-04-08T15:43:43;95898.19;;;7.13;100.00
1832;BME280;1680;48.106;11.708;2023-04-08T15:46:10;95904.88;;;6.94;100.00
1832;BME280;1680;48.106;11.708;2023-04-08T15:48:37;95907.69;;;6.93;100.00
1832;BME280;1680;48.106;11.708;2023-04-08T15:51:09;95896.69;;;6.97;100.00
1832;BME280;1680;48.106;11.708;2023-04-08T15:53:37;95899.34;;;7.04;100.00
1832;BME280;1680;48.106;11.708;2023-04-08T15:56:05;95901.41;;;7.15;100.00
1832;BME280;1680;48.106;11.708;2023-04-08T15:58:32;95898.97;;;7.07;100.00
1832;BME280;1680;48.106;11.708;2023-04-08T16:01:00;95910.97;;;7.01;100.00
1832;BME280;1680;48.106;11.708;2023-04-08T16:03:27;95905.72;;;6.95;100.00
1832;BME280;1680;48.106;11.708;2023-04-08T16:05:54;95907.31;;;6.96;100.00
1832;BME280;1680;48.106;11.708;2023-04-08T16:08:23;95915.47;;;7.20;100.00
1832;BME280;1680;48.106;11.708;2023-04-08T16:10:50;95916.66;;;7.18;100.00
1832;BME280;1680;48.106;11.708;2023-04-08T16:13:17;95925.72;;;7.22;100.00
1832;BME280;1680;48.106;11.708;2023-04-08T16:15:45;95919.16;;;7.26;100.00
1832;BME280;1680;48.106;11.708;2023-04-08T16:18:13;95919.00;;;7.06;100.00
1832;BME280;1680;48.106;11.708;2023-04-08T16:20:40;95926.69;;;6.87;100.00
1832;BME280;1680;48.106;11.708;2023-04-08T16:23:07;95930.88;;;7.09;100.00
1832;BME280;1680;48.106;11.708;2023-04-08T16:25:36;95933.84;;;7.06;100.00
1832;BME280;1680;48.106;11.708;2023-04-08T16:31:25;95937.47;;;7.05;100.00
1832;BME280;1680;48.106;11.708;2023-04-08T16:37:14;95937.66;;;7.03;100.00
1832;BME280;1680;48.106;11.708;2023-04-08T16:39:41;95932.44;;;7.03;100.00
1832;BME280;1680;48.106;11.708;2023-04-08T16:42:10;95946.56;;;6.88;100.00
1832;BME280;1680;48.106;11.708;2023-04-08T16:44:37;95945.78;;;6.87;100.00
1832;BME280;1680;48.106;11.708;2023-04-08T16:47:23;95945.06;;;7.06;100.00
1832;BME280;1680;48.106;11.708;2023-04-08T16:49:50;95939.41;;;6.96;100.00
1832;BME280;1680;48.106;11.708;2023-04-08T16:52:18;95945.88;;;6.79;100.00
1832;BME280;1680;48.106;11.708;2023-04-08T16:54:45;95946.72;;;6.80;100.00
1832;BME280;1680;48.106;11.708;2023-04-08T17:00:37;95939.66;;;7.01;100.00
1832;BME280;1680;48.106;11.708;2023-04-08T17:03:04;95942.63;;;6.71;100.00
1832;BME280;1680;48.106;11.708;2023-04-08T17:05:32;95946.09;;;6.78;100.00
1832;BME280;1680;48.106;11.708;2023-04-08T17:07:59;95946.94;;;6.85;100.00
1832;BME280;1680;48.106;11.708;2023-04-08T17:14:19;95955.91;;;6.76;100.00
1832;BME280;1680;48.106;11.708;2023-04-08T17:16:57;95953.66;;;6.73;100.00
1832;BME280;1680;48.106;11.708;2023-04-08T17:19:24;95953.03;;;6.71;100.00
1832;BME280;1680;48.106;11.708;2023-04-08T17:25:20;95953.97;;;6.64;100.00
1832;BME280;1680;48.106;11.708;2023-04-08T17:31:11;95964.03;;;6.67;100.00
1832;BME280;1680;48.106;11.708;2023-04-08T17:37:02;95968.34;;;6.80;100.00
1832;BME280;1680;48.106;11.708;2023-04-08T17:42:51;95972.72;;;6.73;100.00
1832;BME280;1680;48.106;11.708;2023-04-08T17:48:40;95980.72;;;6.72;100.00
1832;BME280;1680;48.106;11.708;2023-04-08T17:51:07;95976.81;;;6.62;100.00
1832;BME280;1680;48.106;11.708;2023-04-08T17:53:36;95979.59;;;6.60;100.00
1832;BME280;1680;48.106;11.708;2023-04-08T17:56:04;95988.41;;;6.59;100.00
1832;BME280;1680;48.106;11.708;2023-04-08T17:58:31;95991.06;;;6.66;100.00
1832;BME280;1680;48.106;11.708;2023-04-08T18:00:59;95986.44;;;6.61;100.00
1832;BME280;1680;48.106;11.708;2023-04-08T18:03:26;95985.50;;;6.69;100.00
1832;BME280;1680;48.106;11.708;2023-04-08T18:05:53;95985.31;;;6.70;100.00
1832;BME280;1680;48.106;11.708;2023-04-08T18:08:21;95994.88;;;6.63;100.00
1832;BME280;1680;48.106;11.708;2023-04-08T18:10:49;96001.31;;;6.67;100.00
1832;BME280;1680;48.106;11.708;2023-04-08T18:13:17;96000.31;;;6.68;100.00
1832;BME280;1680;48.106;11.708;2023-04-08T18:19:04;96006.41;;;6.75;100.00
1832;BME280;1680;48.106;11.708;2023-04-08T18:21:31;96004.16;;;6.72;100.00
1832;BME280;1680;48.106;11.708;2023-04-08T18:23:58;96014.59;;;6.72;100.00
1832;BME280;1680;48.106;11.708;2023-04-08T18:26:27;96013.81;;;6.72;100.00
1832;BME280;1680;48.106;11.708;2023-04-08T18:32:18;96029.88;;;6.75;100.00
1832;BME280;1680;48.106;11.708;2023-04-08T18:34:45;96030.84;;;6.74;100.00
1832;BME280;1680;48.106;11.708;2023-04-08T18:40:34;96036.31;;;6.79;100.00
1832;BME280;1680;48.106;11.708;2023-04-08T18:46:25;96041.53;;;6.79;100.00
1832;BME280;1680;48.106;11.708;2023-04-08T18:56:04;96045.25;;;6.91;100.00
1832;BME280;1680;48.106;11.708;2023-04-08T18:58:32;96049.84;;;6.89;100.00
1832;BME280;1680;48.106;11.708;2023-04-08T19:04:23;95992.31;;;6.28;100.00
1832;BME280;1680;48.106;11.708;2023-04-08T19:06:59;96049.66;;;6.70;100.00
1832;BME280;1680;48.106;11.708;2023-04-08T19:09:27;96055.44;;;6.65;100.00
1832;BME280;1680;48.106;11.708;2023-04-08T19:11:54;96058.59;;;6.81;100.00
1832;BME280;1680;48.106;11.708;2023-04-08T19:14:21;96056.50;;;6.71;100.00
1832;BME280;1680;48.106;11.708;2023-04-08T19:16:49;96059.00;;;6.85;100.00
1832;BME280;1680;48.106;11.708;2023-04-08T19:23:17;96065.53;;;6.74;100.00
1832;BME280;1680;48.106;11.708;2023-04-08T19:25:44;96072.44;;;7.03;100.00